Time;durP1;ratioP1;P1;durP2;ratioP2;P2;SDS_P1;SDS_P2;PMS_P1;PMS_P2;Temp;Humidity;BMP_temperature;BMP_pressure;BME280_temperature;BME280_humidity;BME280_pressure;Samples;Min_cycle;Max_cycle;Signal;HPM_P1;HPM_P2
2020/12/09 00:01:29;;;;;;;9.60;8.40;;;;;;;;;;5106342;28;20934;-61
2020/12/09 00:03:57;;;;;;;9.10;8.00;;;;;;;;;;5112814;28;20455;-60
2020/12/09 00:06:23;;;;;;;10.40;8.40;;;;;;;;;;5094402;28;20418;-61
2020/12/09 00:08:49;;;;;;;10.97;8.93;;;;;;;;;;5112119;28;20412;-60
2020/12/09 00:11:15;;;;;;;10.40;7.90;;;;;;;;;;5107008;28;20911;-61
2020/12/09 00:13:41;;;;;;;11.10;8.43;;;;;;;;;;5077457;28;20501;-60
2020/12/09 00:16:07;;;;;;;11.87;8.57;;;;;;;;;;5096006;28;20222;-60
2020/12/09 00:18:33;;;;;;;10.10;8.37;;;;;;;;;;5107939;28;21083;-61
2020/12/09 00:20:59;;;;;;;12.00;8.47;;;;;;;;;;5088328;28;20184;-61
2020/12/09 00:23:25;;;;;;;10.13;8.50;;;;;;;;;;5108011;28;20228;-61
2020/12/09 00:25:51;;;;;;;10.03;8.13;;;;;;;;;;5100831;28;20879;-60
2020/12/09 00:28:17;;;;;;;10.53;8.67;;;;;;;;;;5118880;27;20550;-61
2020/12/09 00:30:43;;;;;;;9.50;8.30;;;;;;;;;;5093273;28;20484;-61
2020/12/09 00:33:13;;;;;;;10.23;8.63;;;;;;;;;;5097520;28;20422;-61
2020/12/09 00:35:39;;;;;;;9.70;7.80;;;;;;;;;;5101302;28;20236;-61
2020/12/09 00:38:07;;;;;;;10.47;7.87;;;;;;;;;;5111404;28;20766;-61
2020/12/09 00:40:33;;;;;;;11.70;8.47;;;;;;;;;;5108672;28;20479;-60
2020/12/09 00:42:59;;;;;;;10.30;7.70;;;;;;;;;;5097506;28;20441;-60
2020/12/09 00:45:25;;;;;;;11.70;9.10;;;;;;;;;;5093046;28;20406;-60
2020/12/09 00:47:51;;;;;;;10.70;8.47;;;;;;;;;;5096634;28;20425;-60
2020/12/09 00:52:43;;;;;;;10.27;8.67;;;;;;;;;;5102559;28;20293;-61
2020/12/09 00:55:10;;;;;;;12.30;9.27;;;;;;;;;;5101233;28;20175;-61
2020/12/09 00:57:36;;;;;;;12.63;8.90;;;;;;;;;;5106447;28;20436;-62
2020/12/09 01:00:06;;;;;;;10.53;8.73;;;;;;;;;;5094592;28;20425;-60
2020/12/09 01:02:32;;;;;;;10.97;9.07;;;;;;;;;;5096246;28;20535;-60
2020/12/09 01:04:59;;;;;;;11.83;8.40;;;;;;;;;;5107323;28;20433;-60
2020/12/09 01:07:25;;;;;;;11.20;8.63;;;;;;;;;;5108443;28;20480;-63
2020/12/09 01:09:51;;;;;;;10.80;8.93;;;;;;;;;;5092262;28;20476;-60
2020/12/09 01:12:17;;;;;;;13.87;9.30;;;;;;;;;;5098145;28;20517;-60
2020/12/09 01:14:43;;;;;;;11.73;9.77;;;;;;;;;;5109830;28;20908;-61
2020/12/09 01:17:09;;;;;;;11.53;8.57;;;;;;;;;;5093263;28;20441;-61
2020/12/09 01:19:36;;;;;;;10.50;9.00;;;;;;;;;;5091697;28;20474;-60
2020/12/09 01:22:08;;;;;;;11.93;9.03;;;;;;;;;;5077284;28;20824;-60
2020/12/09 01:24:34;;;;;;;10.27;8.90;;;;;;;;;;5097804;28;20793;-61
2020/12/09 01:27:00;;;;;;;13.60;9.70;;;;;;;;;;5075865;28;20465;-61
2020/12/09 01:29:27;;;;;;;10.53;9.43;;;;;;;;;;5095149;28;20943;-63
2020/12/09 01:31:56;;;;;;;12.90;9.33;;;;;;;;;;5099261;28;20438;-60
2020/12/09 01:34:22;;;;;;;11.13;9.23;;;;;;;;;;5101450;28;20461;-61
2020/12/09 01:36:48;;;;;;;12.23;8.73;;;;;;;;;;5094513;28;20453;-61
2020/12/09 01:39:15;;;;;;;10.97;8.87;;;;;;;;;;5101662;28;20190;-63
2020/12/09 01:41:41;;;;;;;11.93;9.37;;;;;;;;;;5101651;28;20512;-60
2020/12/09 01:44:07;;;;;;;12.47;10.37;;;;;;;;;;5100874;28;20532;-60
2020/12/09 01:46:33;;;;;;;11.37;9.63;;;;;;;;;;5091835;28;20180;-60
2020/12/09 01:48:59;;;;;;;11.07;9.10;;;;;;;;;;5096680;28;20426;-60
2020/12/09 01:51:26;;;;;;;12.43;9.67;;;;;;;;;;5092072;28;20186;-63
2020/12/09 01:53:52;;;;;;;13.23;10.27;;;;;;;;;;5091339;28;20743;-60
2020/12/09 01:56:19;;;;;;;13.17;10.40;;;;;;;;;;5091527;28;20179;-60
2020/12/09 01:58:45;;;;;;;14.53;10.20;;;;;;;;;;5097318;28;20435;-63
2020/12/09 02:01:11;;;;;;;17.13;10.40;;;;;;;;;;5100550;28;20421;-61
2020/12/09 02:03:37;;;;;;;12.63;9.70;;;;;;;;;;5098208;28;20482;-60
2020/12/09 02:06:04;;;;;;;14.97;11.17;;;;;;;;;;5091987;28;20418;-60
2020/12/09 02:08:30;;;;;;;14.00;11.27;;;;;;;;;;5106632;28;20436;-63
2020/12/09 02:11:03;;;;;;;13.53;11.10;;;;;;;;;;5111509;28;20460;-60
2020/12/09 02:13:29;;;;;;;13.80;10.53;;;;;;;;;;5095984;28;20456;-60
2020/12/09 02:15:55;;;;;;;14.67;10.93;;;;;;;;;;5096471;28;20413;-62
2020/12/09 02:18:21;;;;;;;12.83;10.60;;;;;;;;;;5095366;28;20433;-60
2020/12/09 02:20:48;;;;;;;13.17;10.90;;;;;;;;;;5109075;28;20421;-60
2020/12/09 02:23:14;;;;;;;16.23;12.37;;;;;;;;;;5100498;28;20445;-61
2020/12/09 02:25:40;;;;;;;14.27;10.63;;;;;;;;;;5093574;28;20437;-63
2020/12/09 02:28:06;;;;;;;13.10;10.17;;;;;;;;;;5103536;28;20433;-62
2020/12/09 02:30:32;;;;;;;14.60;10.27;;;;;;;;;;5103819;28;20202;-61
2020/12/09 02:32:58;;;;;;;13.37;11.13;;;;;;;;;;5105702;28;20845;-60
2020/12/09 02:35:24;;;;;;;14.50;10.87;;;;;;;;;;5091916;28;20967;-61
2020/12/09 02:37:53;;;;;;;14.57;11.73;;;;;;;;;;5094169;28;20964;-61
2020/12/09 02:40:19;;;;;;;13.97;10.37;;;;;;;;;;5091366;28;20425;-60
2020/12/09 02:42:45;;;;;;;15.63;10.67;;;;;;;;;;5091373;28;20425;-62
2020/12/09 02:45:11;;;;;;;12.93;10.93;;;;;;;;;;5091678;28;20497;-60
2020/12/09 02:47:37;;;;;;;14.07;10.70;;;;;;;;;;5095101;28;20580;-60
2020/12/09 02:50:04;;;;;;;13.87;10.77;;;;;;;;;;5099526;28;20191;-60
2020/12/09 02:52:30;;;;;;;12.77;10.83;;;;;;;;;;5104751;28;20175;-60
2020/12/09 02:54:56;;;;;;;13.40;11.17;;;;;;;;;;5077311;28;20422;-61
2020/12/09 02:57:22;;;;;;;16.33;11.57;;;;;;;;;;5091694;28;20429;-61
2020/12/09 02:59:48;;;;;;;13.90;11.17;;;;;;;;;;5095410;28;20472;-61
2020/12/09 03:02:14;;;;;;;14.80;11.57;;;;;;;;;;5093980;27;20216;-61
2020/12/09 03:04:40;;;;;;;15.57;11.50;;;;;;;;;;5092745;28;20184;-61
2020/12/09 03:07:06;;;;;;;14.80;11.60;;;;;;;;;;5098179;28;20625;-61
2020/12/09 03:09:32;;;;;;;14.97;11.37;;;;;;;;;;5111193;28;20457;-61
2020/12/09 03:11:58;;;;;;;14.30;11.87;;;;;;;;;;5082748;28;20467;-60
2020/12/09 03:14:24;;;;;;;14.73;11.70;;;;;;;;;;5092609;28;20406;-61
2020/12/09 03:16:50;;;;;;;14.70;11.33;;;;;;;;;;5078189;28;20507;-60
2020/12/09 03:19:16;;;;;;;15.40;11.63;;;;;;;;;;5091285;28;20854;-60
2020/12/09 03:21:43;;;;;;;16.67;12.43;;;;;;;;;;5078874;28;20417;-61
2020/12/09 03:24:09;;;;;;;15.47;11.73;;;;;;;;;;5106921;28;20421;-60
2020/12/09 03:26:35;;;;;;;14.73;11.07;;;;;;;;;;5098528;28;20430;-61
2020/12/09 03:29:01;;;;;;;15.53;12.07;;;;;;;;;;5114641;28;20444;-62
2020/12/09 03:31:27;;;;;;;16.33;12.13;;;;;;;;;;5107872;28;20202;-61
2020/12/09 03:33:53;;;;;;;15.37;11.37;;;;;;;;;;5099449;28;20927;-60
2020/12/09 03:36:19;;;;;;;13.90;11.27;;;;;;;;;;5104400;28;20182;-60
2020/12/09 03:38:45;;;;;;;15.60;11.70;;;;;;;;;;5107193;28;20176;-61
2020/12/09 03:41:11;;;;;;;14.90;11.40;;;;;;;;;;5094260;28;20482;-61
2020/12/09 03:43:37;;;;;;;16.20;11.37;;;;;;;;;;5110445;28;20587;-61
2020/12/09 03:46:03;;;;;;;17.20;12.07;;;;;;;;;;5112436;28;20199;-60
2020/12/09 03:48:29;;;;;;;14.10;11.20;;;;;;;;;;5099372;28;20495;-60
2020/12/09 03:50:55;;;;;;;15.63;11.93;;;;;;;;;;5093537;28;20518;-60
2020/12/09 03:53:21;;;;;;;16.13;12.00;;;;;;;;;;5106681;28;21324;-60
2020/12/09 03:55:50;;;;;;;13.47;10.67;;;;;;;;;;5101386;28;20888;-61
2020/12/09 03:58:16;;;;;;;14.97;11.67;;;;;;;;;;5102923;28;20429;-61
2020/12/09 04:00:42;;;;;;;15.83;12.40;;;;;;;;;;5099215;28;20422;-60
2020/12/09 04:03:09;;;;;;;15.33;11.23;;;;;;;;;;5098751;28;20457;-60
2020/12/09 04:05:35;;;;;;;13.50;10.93;;;;;;;;;;5094070;28;20430;-61
2020/12/09 04:08:01;;;;;;;15.07;11.90;;;;;;;;;;5086920;28;20938;-61
2020/12/09 04:10:27;;;;;;;14.47;11.77;;;;;;;;;;5112307;28;20214;-60
2020/12/09 04:12:53;;;;;;;16.70;12.13;;;;;;;;;;5101430;28;20179;-61
2020/12/09 04:15:19;;;;;;;14.53;11.67;;;;;;;;;;5103814;28;20455;-60
2020/12/09 04:17:45;;;;;;;15.90;12.27;;;;;;;;;;5097633;28;20939;-60
2020/12/09 04:20:12;;;;;;;16.60;12.13;;;;;;;;;;5093207;28;20402;-61
2020/12/09 04:22:39;;;;;;;16.83;11.87;;;;;;;;;;5099211;28;20531;-60
2020/12/09 04:25:05;;;;;;;14.73;12.20;;;;;;;;;;5093276;28;20409;-61
2020/12/09 04:27:31;;;;;;;14.93;11.60;;;;;;;;;;5100521;28;20503;-60
2020/12/09 04:29:57;;;;;;;13.50;10.33;;;;;;;;;;5106684;28;20543;-60
2020/12/09 04:32:23;;;;;;;15.40;12.20;;;;;;;;;;5099829;28;20443;-61
2020/12/09 04:34:50;;;;;;;14.97;11.67;;;;;;;;;;5102266;28;20422;-60
2020/12/09 04:37:20;;;;;;;12.83;10.97;;;;;;;;;;5093978;28;20937;-60
2020/12/09 04:39:46;;;;;;;16.17;12.10;;;;;;;;;;5093176;28;20750;-61
2020/12/09 04:42:17;;;;;;;15.00;11.77;;;;;;;;;;5098357;28;20982;-61
2020/12/09 04:44:44;;;;;;;14.73;11.83;;;;;;;;;;5113633;28;20744;-60
2020/12/09 04:47:16;;;;;;;16.40;12.60;;;;;;;;;;5112700;27;20429;-60
2020/12/09 04:49:46;;;;;;;15.57;11.60;;;;;;;;;;5093338;28;20469;-60
2020/12/09 04:52:24;;;;;;;15.93;12.13;;;;;;;;;;5098822;28;20425;-63
2020/12/09 04:54:53;;;;;;;17.67;12.47;;;;;;;;;;5094847;28;20426;-60
2020/12/09 04:57:39;;;;;;;17.57;13.47;;;;;;;;;;5098302;28;20424;-61
2020/12/09 05:00:06;;;;;;;17.03;12.70;;;;;;;;;;5097680;28;20904;-60
2020/12/09 05:02:41;;;;;;;17.80;12.00;;;;;;;;;;5102348;28;20666;-61
2020/12/09 05:05:08;;;;;;;18.23;12.87;;;;;;;;;;5098107;28;20425;-62
2020/12/09 05:07:36;;;;;;;17.37;13.27;;;;;;;;;;5096692;28;20513;-61
2020/12/09 05:10:03;;;;;;;15.23;12.13;;;;;;;;;;5092968;28;20538;-61
2020/12/09 05:12:39;;;;;;;15.13;11.63;;;;;;;;;;5077627;28;20474;-60
2020/12/09 05:15:06;;;;;;;18.87;12.03;;;;;;;;;;5105453;28;20401;-62
2020/12/09 05:17:36;;;;;;;16.57;12.83;;;;;;;;;;5120043;27;20472;-62
2020/12/09 05:20:04;;;;;;;16.37;12.63;;;;;;;;;;5102134;28;20468;-60
2020/12/09 05:22:31;;;;;;;19.10;13.53;;;;;;;;;;5107206;28;20516;-60
2020/12/09 05:24:57;;;;;;;15.67;12.07;;;;;;;;;;5116925;27;21300;-62
2020/12/09 05:27:23;;;;;;;16.43;12.80;;;;;;;;;;5105871;27;20432;-61
2020/12/09 05:29:50;;;;;;;16.83;13.37;;;;;;;;;;5096001;27;20232;-61
2020/12/09 05:32:16;;;;;;;17.60;13.00;;;;;;;;;;5102695;27;20442;-61
2020/12/09 05:34:42;;;;;;;18.93;14.27;;;;;;;;;;5101590;28;20451;-61
2020/12/09 05:37:09;;;;;;;17.93;13.33;;;;;;;;;;5110371;28;20798;-60
2020/12/09 05:39:36;;;;;;;17.07;13.80;;;;;;;;;;5106221;28;20509;-60
2020/12/09 05:42:15;;;;;;;18.13;13.83;;;;;;;;;;5106427;27;20472;-60
2020/12/09 05:44:42;;;;;;;18.80;13.80;;;;;;;;;;5112635;27;20428;-60
2020/12/09 05:47:08;;;;;;;19.87;13.77;;;;;;;;;;5109280;27;20487;-60
2020/12/09 05:49:39;;;;;;;19.00;13.77;;;;;;;;;;5122588;27;20510;-61
2020/12/09 05:52:15;;;;;;;17.03;13.23;;;;;;;;;;5111128;28;20405;-60
2020/12/09 05:54:51;;;;;;;18.83;14.03;;;;;;;;;;5110458;28;20459;-62
2020/12/09 05:57:18;;;;;;;19.87;15.43;;;;;;;;;;5109465;28;20420;-60
2020/12/09 05:59:45;;;;;;;19.60;14.40;;;;;;;;;;5105941;28;20425;-60
2020/12/09 06:02:12;;;;;;;18.97;14.67;;;;;;;;;;5103655;28;20541;-60
2020/12/09 06:04:45;;;;;;;20.00;14.50;;;;;;;;;;5099002;28;20829;-60
2020/12/09 06:07:11;;;;;;;20.20;15.60;;;;;;;;;;5111956;28;20915;-60
2020/12/09 06:09:38;;;;;;;22.87;16.17;;;;;;;;;;5089667;28;21986;-62
2020/12/09 06:12:05;;;;;;;21.17;15.43;;;;;;;;;;5101407;28;20822;-60
2020/12/09 06:14:31;;;;;;;21.10;15.83;;;;;;;;;;5079605;28;20430;-60
2020/12/09 06:16:57;;;;;;;22.53;16.13;;;;;;;;;;5081625;28;20438;-61
2020/12/09 06:19:26;;;;;;;21.67;16.10;;;;;;;;;;5072847;28;20433;-60
2020/12/09 06:21:56;;;;;;;22.67;16.73;;;;;;;;;;5105123;28;20417;-60
2020/12/09 06:24:22;;;;;;;20.13;15.97;;;;;;;;;;5088803;28;20421;-60
2020/12/09 06:26:49;;;;;;;21.33;15.50;;;;;;;;;;5075998;28;20455;-61
2020/12/09 06:29:21;;;;;;;23.10;16.23;;;;;;;;;;5076614;28;20422;-60
2020/12/09 06:31:58;;;;;;;23.60;14.67;;;;;;;;;;5086497;28;20472;-60
2020/12/09 06:34:24;;;;;;;22.23;17.70;;;;;;;;;;5070842;28;20472;-61
2020/12/09 06:37:09;;;;;;;26.83;16.93;;;;;;;;;;5052188;28;20173;-60
2020/12/09 06:39:35;;;;;;;21.10;15.80;;;;;;;;;;5093599;28;20433;-62
2020/12/09 06:42:01;;;;;;;23.07;16.90;;;;;;;;;;5086108;28;20406;-60
2020/12/09 06:44:31;;;;;;;23.97;17.30;;;;;;;;;;5087835;28;20432;-60
2020/12/09 06:46:58;;;;;;;23.03;16.77;;;;;;;;;;5081086;28;20438;-60
2020/12/09 06:49:30;;;;;;;27.40;17.90;;;;;;;;;;5070538;28;20450;-60
2020/12/09 06:51:57;;;;;;;25.17;17.80;;;;;;;;;;5070666;28;20398;-60
2020/12/09 06:54:36;;;;;;;26.70;18.27;;;;;;;;;;5070763;28;20410;-63
2020/12/09 06:57:21;;;;;;;28.97;18.77;;;;;;;;;;5073806;28;20387;-60
2020/12/09 06:59:52;;;;;;;28.03;19.40;;;;;;;;;;5085999;28;20410;-60
2020/12/09 07:02:26;;;;;;;29.93;19.50;;;;;;;;;;5080413;28;20473;-62
2020/12/09 07:04:55;;;;;;;27.57;19.90;;;;;;;;;;5114620;28;20152;-60
2020/12/09 07:07:28;;;;;;;29.20;20.40;;;;;;;;;;5114463;28;20405;-60
2020/12/09 07:09:54;;;;;;;28.00;20.30;;;;;;;;;;5113474;28;20499;-60
2020/12/09 07:12:24;;;;;;;28.93;20.70;;;;;;;;;;5114089;28;20393;-60
2020/12/09 07:14:50;;;;;;;32.93;20.70;;;;;;;;;;5113081;28;20430;-60
2020/12/09 07:17:17;;;;;;;29.90;20.80;;;;;;;;;;5113622;28;20405;-61
2020/12/09 07:19:43;;;;;;;30.97;21.03;;;;;;;;;;5113947;28;20436;-61
2020/12/09 07:22:10;;;;;;;42.63;26.30;;;;;;;;;;5113894;28;20756;-60
2020/12/09 07:24:36;;;;;;;37.60;24.83;;;;;;;;;;5113940;28;20788;-60
2020/12/09 07:27:02;;;;;;;36.73;24.70;;;;;;;;;;5112937;28;20409;-59
2020/12/09 07:29:28;;;;;;;40.17;25.43;;;;;;;;;;5113084;28;20491;-59
2020/12/09 07:31:59;;;;;;;39.00;26.10;;;;;;;;;;5112504;28;20432;-59
2020/12/09 07:34:25;;;;;;;41.40;26.47;;;;;;;;;;5113245;28;20413;-60
2020/12/09 07:36:53;;;;;;;35.23;23.30;;;;;;;;;;5100624;28;20422;-59
2020/12/09 07:39:29;;;;;;;41.53;25.97;;;;;;;;;;5104634;28;20508;-63
2020/12/09 07:41:57;;;;;;;39.77;25.23;;;;;;;;;;5103757;28;20961;-59
2020/12/09 07:44:24;;;;;;;40.60;24.87;;;;;;;;;;5108341;28;20767;-61
2020/12/09 07:46:54;;;;;;;36.53;25.10;;;;;;;;;;5112473;28;20409;-60
2020/12/09 07:49:20;;;;;;;41.87;26.10;;;;;;;;;;5113034;28;20403;-60
2020/12/09 07:51:46;;;;;;;36.43;23.30;;;;;;;;;;5113926;28;20413;-60
2020/12/09 07:54:14;;;;;;;42.47;25.23;;;;;;;;;;5114327;28;20397;-59
2020/12/09 07:56:40;;;;;;;39.87;24.77;;;;;;;;;;5112989;28;20407;-60
2020/12/09 07:59:06;;;;;;;40.30;24.67;;;;;;;;;;5113019;28;20933;-60
2020/12/09 08:01:32;;;;;;;38.60;23.60;;;;;;;;;;5112659;28;20884;-59
2020/12/09 08:03:58;;;;;;;40.23;26.23;;;;;;;;;;5112886;28;20453;-60
2020/12/09 08:06:24;;;;;;;41.03;25.00;;;;;;;;;;5091637;27;20265;-62
2020/12/09 08:08:51;;;;;;;38.73;24.20;;;;;;;;;;5093303;28;20449;-60
2020/12/09 08:11:17;;;;;;;39.87;25.10;;;;;;;;;;5127354;27;20460;-60
2020/12/09 08:13:43;;;;;;;36.80;24.60;;;;;;;;;;5133146;27;20438;-59
2020/12/09 08:16:14;;;;;;;37.87;24.30;;;;;;;;;;5111664;27;20456;-60
2020/12/09 08:18:40;;;;;;;40.20;26.03;;;;;;;;;;5113066;28;20487;-60
2020/12/09 08:21:07;;;;;;;38.97;24.83;;;;;;;;;;5094326;28;20425;-60
2020/12/09 08:23:46;;;;;;;43.43;25.43;;;;;;;;;;5094319;28;20745;-59
2020/12/09 08:26:13;;;;;;;35.70;24.70;;;;;;;;;;5112161;28;20428;-59
2020/12/09 08:28:45;;;;;;;39.87;26.57;;;;;;;;;;5112211;28;20883;-62
2020/12/09 08:31:15;;;;;;;41.70;27.80;;;;;;;;;;5105302;27;20460;-60
2020/12/09 08:33:41;;;;;;;44.53;26.57;;;;;;;;;;5110309;28;20412;-59
2020/12/09 08:36:09;;;;;;;38.20;24.67;;;;;;;;;;5112022;28;20829;-60
2020/12/09 08:38:46;;;;;;;46.33;28.30;;;;;;;;;;5111844;28;20186;-60
2020/12/09 08:41:14;;;;;;;44.10;26.53;;;;;;;;;;5111893;28;20830;-59
2020/12/09 08:43:41;;;;;;;37.53;25.27;;;;;;;;;;5111312;28;20405;-59
2020/12/09 08:46:08;;;;;;;40.73;27.13;;;;;;;;;;5110633;28;20433;-61
2020/12/09 08:48:35;;;;;;;42.50;27.07;;;;;;;;;;5111153;28;20529;-59
2020/12/09 08:51:01;;;;;;;44.57;27.70;;;;;;;;;;5112705;28;20452;-59
2020/12/09 08:53:27;;;;;;;39.83;26.23;;;;;;;;;;5111975;27;20904;-60
2020/12/09 08:55:54;;;;;;;38.00;25.43;;;;;;;;;;5113203;28;20397;-60
2020/12/09 08:58:20;;;;;;;41.07;27.17;;;;;;;;;;5112967;28;20896;-63
2020/12/09 09:00:47;;;;;;;39.43;26.83;;;;;;;;;;5112519;28;20432;-60
2020/12/09 09:03:17;;;;;;;43.13;25.87;;;;;;;;;;5111781;28;20526;-59
2020/12/09 09:05:45;;;;;;;39.03;25.63;;;;;;;;;;5111805;28;20417;-60
2020/12/09 09:08:12;;;;;;;42.47;27.13;;;;;;;;;;5112006;28;20488;-60
2020/12/09 09:10:38;;;;;;;37.27;25.70;;;;;;;;;;5110924;28;20460;-60
2020/12/09 09:13:05;;;;;;;35.50;25.13;;;;;;;;;;5118798;27;20488;-59
2020/12/09 09:15:31;;;;;;;39.17;26.20;;;;;;;;;;5132240;27;20407;-60
2020/12/09 09:17:58;;;;;;;43.00;26.80;;;;;;;;;;5111705;27;21303;-60
2020/12/09 09:20:25;;;;;;;41.80;27.57;;;;;;;;;;5106622;28;20467;-60
2020/12/09 09:22:51;;;;;;;43.77;27.77;;;;;;;;;;5124978;27;20435;-60
2020/12/09 09:25:17;;;;;;;44.03;27.80;;;;;;;;;;5108040;28;20420;-60
2020/12/09 09:27:43;;;;;;;46.17;27.80;;;;;;;;;;5108887;28;20413;-60
2020/12/09 09:30:10;;;;;;;40.03;27.50;;;;;;;;;;5108901;28;20546;-60
2020/12/09 09:32:36;;;;;;;40.37;26.43;;;;;;;;;;5107519;28;20177;-60
2020/12/09 09:35:02;;;;;;;44.13;29.03;;;;;;;;;;5110914;28;20412;-60
2020/12/09 09:37:28;;;;;;;37.63;25.80;;;;;;;;;;5111542;28;20736;-60
2020/12/09 09:39:54;;;;;;;41.13;28.20;;;;;;;;;;5110546;28;20470;-60
2020/12/09 09:42:20;;;;;;;44.83;28.13;;;;;;;;;;5092781;28;20237;-61
2020/12/09 09:44:47;;;;;;;41.33;27.10;;;;;;;;;;5108362;28;20440;-60
2020/12/09 09:47:13;;;;;;;46.47;26.80;;;;;;;;;;5072341;28;20420;-60
2020/12/09 09:49:39;;;;;;;42.53;28.80;;;;;;;;;;5105819;28;20456;-60
2020/12/09 09:52:05;;;;;;;39.73;27.50;;;;;;;;;;5104910;27;20429;-61
2020/12/09 09:54:32;;;;;;;46.30;28.90;;;;;;;;;;5086251;28;20433;-60
2020/12/09 09:56:58;;;;;;;41.27;27.43;;;;;;;;;;5108291;28;20420;-59
2020/12/09 09:59:24;;;;;;;45.10;28.27;;;;;;;;;;5109905;27;20773;-59
2020/12/09 10:01:51;;;;;;;40.93;28.60;;;;;;;;;;5093077;28;20741;-60
2020/12/09 10:04:17;;;;;;;40.43;27.00;;;;;;;;;;5110568;28;20422;-60
2020/12/09 10:06:43;;;;;;;43.00;29.03;;;;;;;;;;5092197;28;20424;-60
2020/12/09 10:09:09;;;;;;;43.95;28.40;;;;;;;;;;5110301;28;20171;-59
2020/12/09 10:11:36;;;;;;;40.83;27.87;;;;;;;;;;5110238;28;20440;-59
2020/12/09 10:14:02;;;;;;;40.07;26.40;;;;;;;;;;5110588;28;20409;-60
2020/12/09 10:16:28;;;;;;;41.73;27.90;;;;;;;;;;5109339;28;20416;-60
2020/12/09 10:18:55;;;;;;;45.27;29.37;;;;;;;;;;5112310;28;20420;-60
2020/12/09 10:21:31;;;;;;;43.90;28.17;;;;;;;;;;5112707;27;20420;-60
2020/12/09 10:23:58;;;;;;;42.73;28.50;;;;;;;;;;5131154;27;20791;-60
2020/12/09 10:26:28;;;;;;;40.13;27.30;;;;;;;;;;5130538;27;20936;-60
2020/12/09 10:28:54;;;;;;;43.93;28.57;;;;;;;;;;5089981;28;20421;-60
2020/12/09 10:31:20;;;;;;;38.93;26.37;;;;;;;;;;5106753;28;20926;-59
2020/12/09 10:33:46;;;;;;;41.37;27.10;;;;;;;;;;5092574;28;20809;-60
2020/12/09 10:36:12;;;;;;;36.97;26.17;;;;;;;;;;5110238;28;20408;-60
2020/12/09 10:38:38;;;;;;;36.63;25.67;;;;;;;;;;5109977;28;20854;-60
2020/12/09 10:41:04;;;;;;;39.83;26.17;;;;;;;;;;5120096;28;21344;-59
2020/12/09 10:43:30;;;;;;;38.80;26.10;;;;;;;;;;5130951;28;20445;-62
2020/12/09 10:45:56;;;;;;;34.83;25.57;;;;;;;;;;5094631;28;20175;-60
2020/12/09 10:48:22;;;;;;;34.30;24.33;;;;;;;;;;5110338;28;20401;-60
2020/12/09 10:50:48;;;;;;;36.37;25.47;;;;;;;;;;5109337;28;20225;-62
2020/12/09 10:53:14;;;;;;;36.23;24.57;;;;;;;;;;5092290;28;20205;-60
2020/12/09 10:55:41;;;;;;;32.47;22.33;;;;;;;;;;5109314;28;20167;-60
2020/12/09 10:58:07;;;;;;;33.83;23.37;;;;;;;;;;5109827;28;20450;-60
2020/12/09 11:00:33;;;;;;;33.77;23.67;;;;;;;;;;5091685;28;20474;-59
2020/12/09 11:02:59;;;;;;;33.37;23.43;;;;;;;;;;5110205;28;20453;-60
2020/12/09 11:05:25;;;;;;;35.23;23.63;;;;;;;;;;5110431;28;20405;-60
2020/12/09 11:07:51;;;;;;;33.20;23.10;;;;;;;;;;5121306;28;20467;-61
2020/12/09 11:10:17;;;;;;;32.93;22.13;;;;;;;;;;5112810;28;20559;-60
2020/12/09 11:12:43;;;;;;;29.20;20.87;;;;;;;;;;5110051;28;20401;-59
2020/12/09 11:15:09;;;;;;;32.00;23.40;;;;;;;;;;5114715;28;20428;-60
2020/12/09 11:17:35;;;;;;;31.80;23.27;;;;;;;;;;5108877;28;20439;-60
2020/12/09 11:20:01;;;;;;;31.17;22.03;;;;;;;;;;5124454;28;20414;-60
2020/12/09 11:22:27;;;;;;;32.30;22.20;;;;;;;;;;5120230;28;20942;-59
2020/12/09 11:24:53;;;;;;;30.90;21.63;;;;;;;;;;5111028;28;20245;-60
2020/12/09 11:27:19;;;;;;;28.83;22.63;;;;;;;;;;5110830;28;20408;-60
2020/12/09 11:29:46;;;;;;;31.00;21.43;;;;;;;;;;5110180;28;20459;-59
2020/12/09 11:32:12;;;;;;;32.47;23.20;;;;;;;;;;5110973;28;20239;-60
2020/12/09 11:34:38;;;;;;;30.57;22.27;;;;;;;;;;5111002;28;20431;-60
2020/12/09 11:37:04;;;;;;;29.27;21.27;;;;;;;;;;5110379;28;20752;-59
2020/12/09 11:39:30;;;;;;;28.67;21.17;;;;;;;;;;5108864;28;20432;-60
2020/12/09 11:42:01;;;;;;;31.47;21.40;;;;;;;;;;5108139;28;20434;-61
2020/12/09 11:44:27;;;;;;;31.40;22.50;;;;;;;;;;5094478;28;20398;-60
2020/12/09 11:46:53;;;;;;;32.70;21.97;;;;;;;;;;5094070;28;20398;-60
2020/12/09 11:49:19;;;;;;;28.77;21.57;;;;;;;;;;5093999;28;20799;-60
2020/12/09 11:51:48;;;;;;;30.37;22.00;;;;;;;;;;5093326;28;20263;-60
2020/12/09 11:54:14;;;;;;;27.20;19.60;;;;;;;;;;5112238;28;20428;-60
2020/12/09 11:56:40;;;;;;;28.77;21.57;;;;;;;;;;5114099;28;20405;-60
2020/12/09 11:59:06;;;;;;;26.47;20.40;;;;;;;;;;5112659;28;20218;-59
2020/12/09 12:01:32;;;;;;;29.97;22.27;;;;;;;;;;5095877;28;20171;-60
2020/12/09 12:03:58;;;;;;;27.33;21.50;;;;;;;;;;5113950;28;20211;-60
2020/12/09 12:06:26;;;;;;;27.90;20.63;;;;;;;;;;5114254;28;20432;-60
2020/12/09 12:08:53;;;;;;;27.50;19.77;;;;;;;;;;5113189;28;20183;-60
2020/12/09 12:11:19;;;;;;;30.47;22.33;;;;;;;;;;5095206;28;20596;-60
2020/12/09 12:13:45;;;;;;;27.00;20.53;;;;;;;;;;5108949;28;20425;-60
2020/12/09 12:16:13;;;;;;;26.97;20.00;;;;;;;;;;5112388;28;20930;-59
2020/12/09 12:18:39;;;;;;;25.57;20.57;;;;;;;;;;5112405;28;20439;-60
2020/12/09 12:21:05;;;;;;;30.73;20.90;;;;;;;;;;5112988;28;20405;-59
2020/12/09 12:23:31;;;;;;;26.13;19.83;;;;;;;;;;5112843;28;20459;-60
2020/12/09 12:25:57;;;;;;;26.40;19.97;;;;;;;;;;5112272;28;20632;-60
2020/12/09 12:28:24;;;;;;;28.60;21.40;;;;;;;;;;5130001;27;20431;-60
2020/12/09 12:30:50;;;;;;;27.67;19.77;;;;;;;;;;5109164;28;20464;-60
2020/12/09 12:33:16;;;;;;;25.57;19.37;;;;;;;;;;5112299;28;20417;-59
2020/12/09 12:35:42;;;;;;;28.13;20.80;;;;;;;;;;5112639;28;20880;-60
2020/12/09 12:38:08;;;;;;;24.57;19.40;;;;;;;;;;5112188;28;20427;-59
2020/12/09 12:40:35;;;;;;;28.33;20.57;;;;;;;;;;5111751;28;20417;-59
2020/12/09 12:43:01;;;;;;;28.20;20.47;;;;;;;;;;5093617;28;20413;-60
2020/12/09 12:45:27;;;;;;;29.67;21.50;;;;;;;;;;5111869;28;20470;-59
2020/12/09 12:47:52;;;;;;;28.63;20.90;;;;;;;;;;5111883;28;20789;-63
2020/12/09 12:50:18;;;;;;;31.33;21.60;;;;;;;;;;5093695;28;20206;-60
2020/12/09 12:52:45;;;;;;;28.87;20.57;;;;;;;;;;5109489;27;20638;-60
2020/12/09 12:55:11;;;;;;;25.50;20.27;;;;;;;;;;5112197;28;20534;-60
2020/12/09 12:57:37;;;;;;;28.77;20.77;;;;;;;;;;5112277;28;20802;-60
2020/12/09 13:00:04;;;;;;;30.07;21.53;;;;;;;;;;5094565;28;20428;-60
2020/12/09 13:02:30;;;;;;;34.40;21.60;;;;;;;;;;5112067;28;20231;-61
2020/12/09 13:04:56;;;;;;;30.53;21.00;;;;;;;;;;5112909;28;20431;-60
2020/12/09 13:07:22;;;;;;;33.47;22.50;;;;;;;;;;5111985;28;20417;-61
2020/12/09 13:09:48;;;;;;;32.33;20.90;;;;;;;;;;5112251;28;20550;-60
2020/12/09 13:12:14;;;;;;;30.27;20.33;;;;;;;;;;5111879;28;20167;-60
2020/12/09 13:14:40;;;;;;;30.43;22.03;;;;;;;;;;5111863;28;20401;-60
2020/12/09 13:17:06;;;;;;;31.10;22.03;;;;;;;;;;5111317;28;20409;-60
2020/12/09 13:19:32;;;;;;;32.40;22.13;;;;;;;;;;5110791;28;20179;-60
2020/12/09 13:21:59;;;;;;;29.57;20.97;;;;;;;;;;5112701;27;20225;-60
2020/12/09 13:24:25;;;;;;;33.57;23.67;;;;;;;;;;5111795;28;20236;-60
2020/12/09 13:26:51;;;;;;;34.20;21.80;;;;;;;;;;5111851;28;20190;-60
2020/12/09 13:29:17;;;;;;;30.23;22.40;;;;;;;;;;5111956;28;20397;-60
2020/12/09 13:31:43;;;;;;;33.63;22.27;;;;;;;;;;5111799;28;20192;-61
2020/12/09 13:34:09;;;;;;;32.63;22.83;;;;;;;;;;5110089;28;20183;-60
2020/12/09 13:36:36;;;;;;;38.13;25.07;;;;;;;;;;5101065;27;20179;-59
2020/12/09 13:39:02;;;;;;;41.27;24.87;;;;;;;;;;5090152;28;20933;-61
2020/12/09 13:41:28;;;;;;;38.83;25.67;;;;;;;;;;5105577;28;20512;-61
2020/12/09 13:43:55;;;;;;;39.70;28.83;;;;;;;;;;5103499;27;20924;-61
2020/12/09 13:46:21;;;;;;;40.50;27.67;;;;;;;;;;5090231;28;20440;-62
2020/12/09 13:48:47;;;;;;;40.10;27.67;;;;;;;;;;5092302;28;20418;-61
2020/12/09 13:51:13;;;;;;;37.73;25.27;;;;;;;;;;5104164;28;20658;-61
2020/12/09 13:53:39;;;;;;;39.80;27.47;;;;;;;;;;5079719;28;20418;-61
2020/12/09 13:56:06;;;;;;;37.73;26.97;;;;;;;;;;5108071;27;20190;-61
2020/12/09 13:58:32;;;;;;;41.33;26.33;;;;;;;;;;5107703;28;20275;-60
2020/12/09 14:00:59;;;;;;;38.03;25.30;;;;;;;;;;5097785;28;20488;-62
2020/12/09 14:03:25;;;;;;;38.47;26.53;;;;;;;;;;5110733;27;20230;-61
2020/12/09 14:05:51;;;;;;;38.57;25.97;;;;;;;;;;5095520;28;20433;-61
2020/12/09 14:08:17;;;;;;;35.90;24.57;;;;;;;;;;5111314;28;20918;-62
2020/12/09 14:10:43;;;;;;;36.03;26.13;;;;;;;;;;5096752;27;20546;-63
2020/12/09 14:13:09;;;;;;;36.40;24.40;;;;;;;;;;5123099;27;20423;-60
2020/12/09 14:15:36;;;;;;;32.40;23.07;;;;;;;;;;5108741;27;20420;-60
2020/12/09 14:18:02;;;;;;;36.80;25.13;;;;;;;;;;5108330;27;20420;-61
2020/12/09 14:20:28;;;;;;;33.93;24.77;;;;;;;;;;5093345;28;20417;-60